createdAt,value
2018-02-11T00:00:34.683Z,85.80
2018-02-11T00:03:02.210Z,85.60
2018-02-11T00:05:29.698Z,85.60
2018-02-11T00:07:57.960Z,85.90
2018-02-11T00:10:25.474Z,86.40
2018-02-11T00:12:54.319Z,86.60
2018-02-11T00:15:22.575Z,86.20
2018-02-11T00:17:50.130Z,86.20
2018-02-11T00:20:17.618Z,86.30
2018-02-11T00:22:45.106Z,86.10
2018-02-11T00:25:13.397Z,85.80
2018-02-11T00:27:40.879Z,85.70
2018-02-11T00:30:08.374Z,85.90
2018-02-11T00:32:35.890Z,86.20
2018-02-11T00:35:03.399Z,86.10
2018-02-11T00:37:36.665Z,86.30
2018-02-11T00:40:04.182Z,85.50
2018-02-11T00:42:31.866Z,85.70
2018-02-11T00:45:00.287Z,85.30
2018-02-11T00:47:27.783Z,85.30
2018-02-11T00:49:55.398Z,85.40
2018-02-11T00:52:22.891Z,85.10
2018-02-11T00:54:50.375Z,84.80
2018-02-11T00:57:17.895Z,84.50
2018-02-11T00:59:46.155Z,84.20
2018-02-11T01:02:13.869Z,84.20
2018-02-11T01:04:41.408Z,83.30
2018-02-11T01:07:08.959Z,82.60
2018-02-11T01:09:37.253Z,82.50
2018-02-11T01:12:04.738Z,82.40
2018-02-11T01:14:32.214Z,82.10
2018-02-11T01:16:59.734Z,82.40
2018-02-11T01:19:27.220Z,82.40
2018-02-11T01:21:54.718Z,82.10
2018-02-11T01:24:23.091Z,82.60
2018-02-11T01:26:51.362Z,82.40
2018-02-11T01:29:19.643Z,82.40
2018-02-11T01:31:47.920Z,82.50
2018-02-11T01:34:16.175Z,82.20
2018-02-11T01:36:43.691Z,82.20
2018-02-11T01:39:11.175Z,82.40
2018-02-11T01:41:38.675Z,82.10
2018-02-11T01:44:06.186Z,82.30
2018-02-11T01:46:33.674Z,82.40
2018-02-11T01:49:01.958Z,82.00
2018-02-11T01:51:30.228Z,82.30
2018-02-11T01:53:58.478Z,82.40
2018-02-11T01:56:25.978Z,82.30
2018-02-11T01:58:53.473Z,82.10
2018-02-11T02:01:21.010Z,82.50
2018-02-11T02:03:48.500Z,83.10
2018-02-11T02:06:15.986Z,83.20
2018-02-11T02:08:43.519Z,83.10
2018-02-11T02:11:11.036Z,83.60
2018-02-11T02:13:38.535Z,84.00
2018-02-11T02:16:06.063Z,83.80
2018-02-11T02:18:33.563Z,83.90
2018-02-11T02:21:01.062Z,84.40
2018-02-11T02:23:28.577Z,84.50
2018-02-11T02:25:56.074Z,85.00
2018-02-11T02:28:23.604Z,85.00
2018-02-11T02:30:51.102Z,84.90
2018-02-11T02:33:18.599Z,84.20
2018-02-11T02:35:46.450Z,84.20
2018-02-11T02:38:13.936Z,84.30
2018-02-11T02:40:41.427Z,84.20
2018-02-11T02:43:08.922Z,83.70
2018-02-11T02:45:36.412Z,83.70
2018-02-11T02:48:03.931Z,83.20
2018-02-11T02:50:31.419Z,83.50
2018-02-11T02:52:58.910Z,83.90
2018-02-11T02:55:26.427Z,83.70
2018-02-11T02:57:53.930Z,83.50
2018-02-11T03:00:21.443Z,83.90
2018-02-11T03:02:48.967Z,83.60
2018-02-11T03:05:16.455Z,83.40
2018-02-11T03:07:44.707Z,84.00
2018-02-11T03:10:12.214Z,84.70
2018-02-11T03:12:40.470Z,82.90
2018-02-11T03:15:08.002Z,82.80
2018-02-11T03:17:35.487Z,83.10
2018-02-11T03:20:03.006Z,83.30
2018-02-11T03:22:30.531Z,84.00
2018-02-11T03:24:58.785Z,83.80
2018-02-11T03:27:26.267Z,83.70
2018-02-11T03:29:54.542Z,83.60
2018-02-11T03:32:22.799Z,84.20
2018-02-11T03:34:50.293Z,84.10
2018-02-11T03:37:17.826Z,84.30
2018-02-11T03:39:46.100Z,84.50
2018-02-11T03:42:14.359Z,84.70
2018-02-11T03:44:41.867Z,84.50
2018-02-11T03:47:09.351Z,85.30
2018-02-11T03:49:36.862Z,85.30
2018-02-11T03:52:05.126Z,86.00
2018-02-11T03:54:33.383Z,86.30
2018-02-11T03:57:00.902Z,86.30
2018-02-11T03:59:28.391Z,86.40
2018-02-11T04:01:55.890Z,86.60
2018-02-11T04:04:24.175Z,86.80
2018-02-11T04:06:51.667Z,86.80
2018-02-11T04:09:19.186Z,87.00
2018-02-11T04:11:46.722Z,87.60
2018-02-11T04:14:14.986Z,88.00
2018-02-11T04:16:42.484Z,87.90
2018-02-11T04:19:09.982Z,88.30
2018-02-11T04:21:37.470Z,88.40
2018-02-11T04:24:05.770Z,88.70
2018-02-11T04:26:33.258Z,88.30
2018-02-11T04:29:00.759Z,88.80
2018-02-11T04:31:28.285Z,88.60
2018-02-11T04:33:55.806Z,88.90
2018-02-11T04:36:23.286Z,88.80
2018-02-11T04:38:50.790Z,89.00
2018-02-11T04:41:18.274Z,89.00
2018-02-11T04:43:45.787Z,89.40
2018-02-11T04:46:13.279Z,89.40
2018-02-11T04:48:41.562Z,89.70
2018-02-11T04:51:09.815Z,90.00
2018-02-11T04:53:38.087Z,90.00
2018-02-11T04:56:05.588Z,90.00
2018-02-11T04:58:33.102Z,90.00
2018-02-11T05:01:00.629Z,90.00
2018-02-11T05:03:28.886Z,90.10
2018-02-11T05:05:56.370Z,90.00
2018-02-11T05:08:23.986Z,90.10
2018-02-11T05:10:51.475Z,90.00
2018-02-11T05:13:18.974Z,90.00
2018-02-11T05:15:47.270Z,89.60
2018-02-11T05:18:15.523Z,89.50
2018-02-11T05:20:43.015Z,89.50
2018-02-11T05:23:10.531Z,89.10
2018-02-11T05:25:38.023Z,89.10
2018-02-11T05:28:05.518Z,89.30
2018-02-11T05:30:33.022Z,88.50
2018-02-11T05:33:01.271Z,87.70
2018-02-11T05:35:28.791Z,87.50
2018-02-11T05:37:56.278Z,87.50
2018-02-11T05:40:23.758Z,87.60
2018-02-11T05:42:51.279Z,87.60
2018-02-11T05:45:18.825Z,86.90
2018-02-11T05:47:47.039Z,86.80
2018-02-11T05:50:14.550Z,86.80
2018-02-11T05:52:43.055Z,86.70
2018-02-11T05:55:10.546Z,86.70
2018-02-11T05:57:38.087Z,86.50
2018-02-11T06:00:05.578Z,85.70
2018-02-11T06:02:33.830Z,85.50
2018-02-11T06:05:01.333Z,85.50
2018-02-11T06:07:28.826Z,85.00
2018-02-11T06:09:56.314Z,85.30
2018-02-11T06:12:24.620Z,85.40
2018-02-11T06:14:52.871Z,85.50
2018-02-11T06:17:21.120Z,85.40
2018-02-11T06:19:48.635Z,85.40
2018-02-11T06:22:16.114Z,85.40
2018-02-11T06:24:43.594Z,85.30
2018-02-11T06:27:11.108Z,85.30
2018-02-11T06:29:38.598Z,85.20
2018-02-11T06:32:06.085Z,85.20
2018-02-11T06:34:33.593Z,85.20
2018-02-11T06:37:01.101Z,84.60
2018-02-11T06:39:28.586Z,85.00
2018-02-11T06:41:56.100Z,85.40
2018-02-11T06:44:23.595Z,85.30
2018-02-11T06:46:51.111Z,84.90
2018-02-11T06:49:18.591Z,84.50
2018-02-11T06:51:46.119Z,84.70
2018-02-11T06:54:13.603Z,84.10
2018-02-11T06:56:42.047Z,83.90
2018-02-11T06:59:09.583Z,83.90
2018-02-11T07:01:37.070Z,83.50
2018-02-11T07:04:04.554Z,83.10
2018-02-11T07:06:32.063Z,83.00
2018-02-11T07:08:59.567Z,83.10
2018-02-11T07:11:27.090Z,83.10
2018-02-11T07:13:54.571Z,82.60
2018-02-11T07:16:22.050Z,82.70
2018-02-11T07:18:49.568Z,82.20
2018-02-11T07:21:17.051Z,82.00
2018-02-11T07:23:44.542Z,81.10
2018-02-11T07:26:12.810Z,81.00
2018-02-11T07:28:40.301Z,81.00
2018-02-11T07:31:07.821Z,81.30
2018-02-11T07:33:35.307Z,81.20
2018-02-11T07:36:03.571Z,81.90
2018-02-11T07:38:31.089Z,81.80
2018-02-11T07:40:58.579Z,82.20
2018-02-11T07:43:26.079Z,82.00
2018-02-11T07:45:53.558Z,81.70
2018-02-11T07:48:21.089Z,82.70
2018-02-11T07:50:48.573Z,82.00
2018-02-11T07:53:16.068Z,82.80
2018-02-11T07:55:43.567Z,82.80
2018-02-11T07:58:11.059Z,83.50
2018-02-11T08:00:38.592Z,83.00
2018-02-11T08:03:06.077Z,83.30
2018-02-11T08:05:33.567Z,83.20
2018-02-11T08:08:01.080Z,82.90
2018-02-11T08:10:28.563Z,83.70
2018-02-11T08:12:56.890Z,82.10
2018-02-11T08:15:24.400Z,82.60
2018-02-11T08:17:51.883Z,82.40
2018-02-11T08:20:20.135Z,81.70
2018-02-11T08:22:47.651Z,81.80
2018-02-11T08:25:15.134Z,81.10
2018-02-11T08:27:42.629Z,80.20
2018-02-11T08:30:10.939Z,76.80
2018-02-11T08:32:38.414Z,76.80
2018-02-11T08:35:05.920Z,76.80
2018-02-11T08:37:35.305Z,75.50
2018-02-11T08:40:02.786Z,75.30
2018-02-11T08:42:31.038Z,75.60
2018-02-11T08:44:58.546Z,75.50
2018-02-11T08:47:26.039Z,76.30
2018-02-11T08:49:53.526Z,77.30
2018-02-11T08:52:21.135Z,77.80
2018-02-11T08:54:48.625Z,78.20
2018-02-11T08:57:16.142Z,78.00
2018-02-11T08:59:43.651Z,77.90
2018-02-11T09:02:11.139Z,77.80
2018-02-11T09:04:39.437Z,76.70
2018-02-11T09:07:07.063Z,76.70
2018-02-11T09:09:35.323Z,76.00
2018-02-11T09:12:02.838Z,75.90
2018-02-11T09:14:30.322Z,75.80
2018-02-11T09:16:57.803Z,75.00
2018-02-11T09:19:26.130Z,75.20
2018-02-11T09:21:53.624Z,75.10
2018-02-11T09:24:21.112Z,74.30
2018-02-11T09:26:49.391Z,73.40
2018-02-11T09:29:17.659Z,73.10
2018-02-11T09:31:45.919Z,73.00
2018-02-11T09:34:13.530Z,72.90
2018-02-11T09:36:41.037Z,72.90
2018-02-11T09:39:08.527Z,73.50
2018-02-11T09:41:36.820Z,72.70
2018-02-11T09:44:04.303Z,72.70
2018-02-11T09:46:31.795Z,72.50
2018-02-11T09:48:59.318Z,72.30
2018-02-11T09:51:26.814Z,72.70
2018-02-11T09:53:55.059Z,73.40
2018-02-11T09:56:22.570Z,73.20
2018-02-11T09:58:50.067Z,73.40
2018-02-11T10:01:17.550Z,72.70
2018-02-11T10:03:45.191Z,73.30
2018-02-11T10:06:15.341Z,72.00
2018-02-11T10:08:43.618Z,73.00
2018-02-11T10:11:11.115Z,72.60
2018-02-11T10:13:38.603Z,72.90
2018-02-11T10:16:06.128Z,73.40
2018-02-11T10:18:34.382Z,72.30
2018-02-11T10:21:02.638Z,73.00
2018-02-11T10:23:30.130Z,72.90
2018-02-11T10:25:57.630Z,73.50
2018-02-11T10:28:25.140Z,74.30
2018-02-11T10:30:53.390Z,74.30
2018-02-11T10:33:20.899Z,74.30
2018-02-11T10:35:48.391Z,73.90
2018-02-11T10:38:15.878Z,72.70
2018-02-11T10:40:44.141Z,72.30
2018-02-11T10:43:11.618Z,72.30
2018-02-11T10:45:39.892Z,71.90
2018-02-11T10:48:08.148Z,71.00
2018-02-11T10:50:35.637Z,71.00
2018-02-11T10:53:03.125Z,71.30
2018-02-11T10:55:30.663Z,71.50
2018-02-11T10:57:58.341Z,71.80
2018-02-11T11:00:25.838Z,71.40
2018-02-11T11:02:53.330Z,71.20
2018-02-11T11:05:20.831Z,71.30
2018-02-11T11:07:48.329Z,71.00
2018-02-11T11:10:16.575Z,72.10
2018-02-11T11:12:44.150Z,72.10
2018-02-11T11:15:11.681Z,73.30
2018-02-11T11:17:39.158Z,74.10
2018-02-11T11:20:06.647Z,75.30
2018-02-11T11:22:34.140Z,75.70
2018-02-11T11:25:01.625Z,76.30
2018-02-11T11:27:29.099Z,76.00
2018-02-11T11:29:56.590Z,76.40
2018-02-11T11:32:24.070Z,76.30
2018-02-11T11:34:58.512Z,75.20
2018-02-11T11:37:26.198Z,75.60
2018-02-11T11:39:53.695Z,75.20
2018-02-11T11:42:21.178Z,75.10
2018-02-11T11:44:48.655Z,75.70
2018-02-11T11:47:16.131Z,74.70
2018-02-11T11:49:43.627Z,75.80
2018-02-11T11:52:11.112Z,76.70
2018-02-11T11:54:38.747Z,77.80
2018-02-11T11:57:06.255Z,77.90
2018-02-11T11:59:33.726Z,77.70
2018-02-11T12:02:01.987Z,78.20
2018-02-11T12:04:29.468Z,78.10
2018-02-11T12:06:57.723Z,78.70
2018-02-11T12:09:25.210Z,78.60
2018-02-11T12:11:52.693Z,78.90
2018-02-11T12:14:20.185Z,79.00
2018-02-11T12:16:47.667Z,78.00
2018-02-11T12:19:15.935Z,77.40
2018-02-11T12:21:43.526Z,77.40
2018-02-11T12:24:11.015Z,78.50
2018-02-11T12:26:38.783Z,80.20
2018-02-11T12:29:06.291Z,79.80
2018-02-11T12:31:34.535Z,82.50
2018-02-11T12:34:02.017Z,82.50
2018-02-11T12:36:30.280Z,82.80
2018-02-11T12:38:57.757Z,82.80
2018-02-11T12:41:26.014Z,84.40
2018-02-11T12:43:54.270Z,85.20
2018-02-11T12:46:21.752Z,85.10
2018-02-11T12:48:49.994Z,84.70
2018-02-11T12:51:17.488Z,84.70
2018-02-11T12:53:45.740Z,84.10
2018-02-11T12:56:13.214Z,84.10
2018-02-11T12:58:41.467Z,83.60
2018-02-11T13:01:08.946Z,83.60
2018-02-11T13:03:37.196Z,81.80
2018-02-11T13:06:04.780Z,81.70
2018-02-11T13:08:33.027Z,81.90
2018-02-11T13:11:00.547Z,81.90
2018-02-11T13:13:28.142Z,80.80
2018-02-11T13:15:55.618Z,81.20
2018-02-11T13:18:23.109Z,80.80
2018-02-11T13:20:51.506Z,82.10
2018-02-11T13:23:18.990Z,82.10
2018-02-11T13:25:46.493Z,82.70
2018-02-11T13:28:14.865Z,83.40
2018-02-11T13:30:42.342Z,83.30
2018-02-11T13:33:09.836Z,83.40
2018-02-11T13:35:37.496Z,83.20
2018-02-11T13:38:04.999Z,83.80
2018-02-11T13:40:32.522Z,82.70
2018-02-11T13:43:00.124Z,83.00
2018-02-11T13:45:27.630Z,82.90
2018-02-11T13:47:55.123Z,83.00
2018-02-11T13:50:22.703Z,82.70
2018-02-11T13:52:50.949Z,82.50
2018-02-11T13:55:18.481Z,82.40
2018-02-11T13:57:46.100Z,82.90
2018-02-11T14:00:14.350Z,83.20
2018-02-11T14:02:41.828Z,83.20
2018-02-11T14:05:10.196Z,83.60
2018-02-11T14:07:37.756Z,83.60
2018-02-11T14:10:05.230Z,84.20
2018-02-11T14:12:33.494Z,84.80
2018-02-11T14:15:00.991Z,84.80
2018-02-11T14:17:28.481Z,85.40
2018-02-11T14:19:55.983Z,86.10
2018-02-11T14:22:24.229Z,86.50
2018-02-11T14:24:51.715Z,86.50
2018-02-11T14:27:19.251Z,87.20
2018-02-11T14:29:46.741Z,87.10
2018-02-11T14:32:14.284Z,87.40
2018-02-11T14:34:41.755Z,87.10
2018-02-11T14:37:09.250Z,86.90
2018-02-11T14:39:36.747Z,87.40
2018-02-11T14:42:04.244Z,86.90
2018-02-11T14:44:31.795Z,87.20
2018-02-11T14:47:00.041Z,86.20
2018-02-11T14:49:27.553Z,86.20
2018-02-11T14:51:55.067Z,86.40
2018-02-11T14:54:22.529Z,86.60
2018-02-11T14:56:50.799Z,86.70
2018-02-11T14:59:18.330Z,86.70
2018-02-11T15:01:45.842Z,86.60
2018-02-11T15:04:13.326Z,86.00
2018-02-11T15:06:40.809Z,86.40
2018-02-11T15:09:08.294Z,86.30
2018-02-11T15:11:36.562Z,86.70
2018-02-11T15:14:04.055Z,86.50
2018-02-11T15:16:31.531Z,86.30
2018-02-11T15:18:59.183Z,86.20
2018-02-11T15:21:26.668Z,86.20
2018-02-11T15:23:54.150Z,85.70
2018-02-11T15:26:21.645Z,86.00
2018-02-11T15:28:49.143Z,86.20
2018-02-11T15:31:16.630Z,86.30
2018-02-11T15:33:44.132Z,86.20
2018-02-11T15:36:11.634Z,86.70
2018-02-11T15:38:39.144Z,87.10
2018-02-11T15:41:06.751Z,87.60
2018-02-11T15:43:34.365Z,87.80
2018-02-11T15:46:01.949Z,88.00
2018-02-11T15:48:29.451Z,88.20
2018-02-11T15:50:56.955Z,88.40
2018-02-11T15:53:24.471Z,88.60
2018-02-11T15:55:52.039Z,89.20
2018-02-11T15:58:19.806Z,89.20
2018-02-11T16:00:48.147Z,89.50
2018-02-11T16:03:15.651Z,89.50
2018-02-11T16:05:43.215Z,89.60
2018-02-11T16:08:10.700Z,90.00
2018-02-11T16:10:38.955Z,90.20
2018-02-11T16:13:06.444Z,90.20
2018-02-11T16:15:34.529Z,90.40
2018-02-11T16:18:02.011Z,90.30
2018-02-11T16:20:29.513Z,90.20
2018-02-11T16:22:57.757Z,90.40
2018-02-11T16:25:25.263Z,90.40
2018-02-11T16:27:52.914Z,90.60
2018-02-11T16:30:20.452Z,90.70
2018-02-11T16:32:47.936Z,90.80
2018-02-11T16:35:15.531Z,91.00
2018-02-11T16:37:46.362Z,90.90
2018-02-11T16:40:13.824Z,90.90
2018-02-11T16:42:41.336Z,91.00
2018-02-11T16:45:09.582Z,91.10
2018-02-11T16:47:37.066Z,91.40
2018-02-11T16:50:05.425Z,90.90
2018-02-11T16:52:32.970Z,90.90
2018-02-11T16:55:00.447Z,91.00
2018-02-11T16:57:27.964Z,91.00
2018-02-11T16:59:55.439Z,91.60
2018-02-11T17:02:22.933Z,91.30
2018-02-11T17:04:51.212Z,91.40
2018-02-11T17:07:19.460Z,91.30
2018-02-11T17:09:46.968Z,91.30
2018-02-11T17:12:14.628Z,91.10
2018-02-11T17:14:42.140Z,91.10
2018-02-11T17:17:09.628Z,91.20
2018-02-11T17:19:37.886Z,90.90
2018-02-11T17:22:06.366Z,90.90
2018-02-11T17:24:33.862Z,90.90
2018-02-11T17:27:01.350Z,91.00
2018-02-11T17:29:28.839Z,90.80
2018-02-11T17:31:56.340Z,90.70
2018-02-11T17:34:23.826Z,90.80
2018-02-11T17:36:51.329Z,90.60
2018-02-11T17:39:19.598Z,90.60
2018-02-11T17:41:47.153Z,90.50
2018-02-11T17:44:14.653Z,90.50
2018-02-11T17:46:42.152Z,90.40
2018-02-11T17:49:09.651Z,90.30
2018-02-11T17:51:37.128Z,90.10
2018-02-11T17:54:04.765Z,90.00
2018-02-11T17:56:33.027Z,89.70
2018-02-11T17:59:01.281Z,89.80
2018-02-11T18:01:28.794Z,89.70
2018-02-11T18:03:56.291Z,89.50
2018-02-11T18:06:23.775Z,88.80
2018-02-11T18:08:52.046Z,89.40
2018-02-11T18:11:19.535Z,88.70
2018-02-11T18:13:47.026Z,89.10
2018-02-11T18:16:14.527Z,89.10
2018-02-11T18:18:42.771Z,88.60
2018-02-11T18:21:10.256Z,88.50
2018-02-11T18:23:38.538Z,88.60
2018-02-11T18:26:06.799Z,88.40
2018-02-11T18:28:34.311Z,88.40
2018-02-11T18:31:01.895Z,88.10
2018-02-11T18:33:29.399Z,88.10
2018-02-11T18:35:57.643Z,88.00
2018-02-11T18:38:25.240Z,88.00
2018-02-11T18:40:52.755Z,88.10
2018-02-11T18:43:21.090Z,87.90
2018-02-11T18:45:48.586Z,87.80
2018-02-11T18:48:16.907Z,87.70
2018-02-11T18:50:44.403Z,87.70
2018-02-11T18:53:11.894Z,88.00
2018-02-11T18:55:39.386Z,88.20
2018-02-11T18:58:07.811Z,88.20
2018-02-11T19:00:36.278Z,88.40
2018-02-11T19:03:03.823Z,88.30
2018-02-11T19:05:31.307Z,88.40
2018-02-11T19:07:59.603Z,88.70
2018-02-11T19:10:27.139Z,88.50
2018-02-11T19:12:55.388Z,88.30
2018-02-11T19:15:22.911Z,88.20
2018-02-11T19:17:50.430Z,88.20
2018-02-11T19:20:17.953Z,88.00
2018-02-11T19:22:45.459Z,87.90
2018-02-11T19:25:13.713Z,87.60
2018-02-11T19:27:41.196Z,87.60
2018-02-11T19:30:09.498Z,88.00
2018-02-11T19:32:36.987Z,87.90
2018-02-11T19:35:04.501Z,89.10
2018-02-11T19:37:32.065Z,88.60
2018-02-11T19:39:59.550Z,88.90
2018-02-11T19:42:27.339Z,89.10
2018-02-11T19:44:54.849Z,89.20
2018-02-11T19:47:22.333Z,89.70
2018-02-11T19:49:49.816Z,89.70
2018-02-11T19:52:17.333Z,89.60
2018-02-11T19:54:44.822Z,89.60
2018-02-11T19:57:12.318Z,89.70
2018-02-11T19:59:39.819Z,89.70
2018-02-11T20:02:07.299Z,89.80
2018-02-11T20:04:34.784Z,90.00
2018-02-11T20:07:03.066Z,90.20
2018-02-11T20:09:30.560Z,90.20
2018-02-11T20:11:58.044Z,90.30
2018-02-11T20:14:25.643Z,90.10
2018-02-11T20:16:53.123Z,90.10
2018-02-11T20:19:20.616Z,90.20
2018-02-11T20:21:49.156Z,90.50
2018-02-11T20:24:16.638Z,90.60
2018-02-11T20:26:44.142Z,90.60
2018-02-11T20:29:12.442Z,90.80
2018-02-11T20:31:39.950Z,90.80
2018-02-11T20:34:07.467Z,90.80
2018-02-11T20:36:34.995Z,90.70
2018-02-11T20:39:03.249Z,90.50
2018-02-11T20:41:31.662Z,90.40
2018-02-11T20:43:59.159Z,90.40
2018-02-11T20:46:26.676Z,90.50
2018-02-11T20:48:54.216Z,90.40
2018-02-11T20:51:22.483Z,90.50
2018-02-11T20:53:49.991Z,90.50
2018-02-11T20:56:17.506Z,90.40
2018-02-11T20:58:45.781Z,90.30
2018-02-11T21:01:14.037Z,90.20
2018-02-11T21:03:41.577Z,90.20
2018-02-11T21:06:09.080Z,90.20
2018-02-11T21:08:37.481Z,90.20
2018-02-11T21:11:05.049Z,90.20
2018-02-11T21:13:32.692Z,90.20
2018-02-11T21:16:00.450Z,90.20
2018-02-11T21:18:27.938Z,90.30
2018-02-11T21:20:56.350Z,90.40
2018-02-11T21:23:23.846Z,90.30
2018-02-11T21:25:51.340Z,90.40
2018-02-11T21:28:18.831Z,90.50
2018-02-11T21:30:46.322Z,90.60
2018-02-11T21:33:13.815Z,90.90
2018-02-11T21:35:41.326Z,90.60
2018-02-11T21:38:09.592Z,90.70
2018-02-11T21:40:37.846Z,90.70
2018-02-11T21:43:05.347Z,90.70
2018-02-11T21:45:32.830Z,90.60
2018-02-11T21:48:00.307Z,90.50
2018-02-11T21:50:27.804Z,90.40
2018-02-11T21:52:56.775Z,90.20
2018-02-11T21:55:24.406Z,90.10
2018-02-11T21:57:51.883Z,90.20
2018-02-11T22:00:19.388Z,90.20
2018-02-11T22:02:47.014Z,90.20
2018-02-11T22:05:14.494Z,90.30
2018-02-11T22:07:42.749Z,90.40
2018-02-11T22:10:11.014Z,90.40
2018-02-11T22:12:38.492Z,90.40
2018-02-11T22:15:06.954Z,90.50
2018-02-11T22:17:34.431Z,90.50
2018-02-11T22:20:02.757Z,90.60
2018-02-11T22:22:30.254Z,90.50
2018-02-11T22:24:57.731Z,90.50
2018-02-11T22:27:25.222Z,90.50
2018-02-11T22:29:52.711Z,90.50
2018-02-11T22:32:20.195Z,90.50
2018-02-11T22:34:48.446Z,90.50
2018-02-11T22:37:15.938Z,90.50
2018-02-11T22:39:43.416Z,90.50
2018-02-11T22:42:10.890Z,90.60
2018-02-11T22:44:38.383Z,90.90
2018-02-11T22:47:05.878Z,91.00
2018-02-11T22:49:33.364Z,91.50
2018-02-11T22:52:00.842Z,91.00
2018-02-11T22:54:28.332Z,91.20
2018-02-11T22:56:56.600Z,91.70
2018-02-11T22:59:24.846Z,91.80
2018-02-11T23:01:52.328Z,91.80
2018-02-11T23:04:20.682Z,91.90
2018-02-11T23:06:48.162Z,92.20
2018-02-11T23:09:15.640Z,91.90
2018-02-11T23:11:43.907Z,91.50
2018-02-11T23:14:12.163Z,91.40
2018-02-11T23:16:39.639Z,91.40
2018-02-11T23:19:07.893Z,91.10
2018-02-11T23:21:35.370Z,91.10
2018-02-11T23:24:03.615Z,91.00
2018-02-11T23:26:31.102Z,91.00
2018-02-11T23:28:59.354Z,90.40
2018-02-11T23:31:26.834Z,90.40
2018-02-11T23:33:55.093Z,90.10
2018-02-11T23:36:22.566Z,90.10
2018-02-11T23:38:50.830Z,89.80
2018-02-11T23:41:18.462Z,89.70
2018-02-11T23:43:45.956Z,90.20
2018-02-11T23:46:14.204Z,90.20
2018-02-11T23:48:41.689Z,90.20
2018-02-11T23:51:09.934Z,90.50
2018-02-11T23:53:37.433Z,90.10
2018-02-11T23:56:05.684Z,90.10
2018-02-11T23:58:33.165Z,90.10
